EZY822 EGKK-EGAA
Flight info
| Callsign | EZY822 |
|---|---|
| Flight time | 0h 57m |
| Altitude | 30000 |
| Route | LAM L10 BPK UN601 LESTA UP6 RODOL UM65 TENSO L603 BELOX DCT REMSI DCT UVPOK M147 ROBOP M146 IPSET P6 BELZU |
| Aircraft | A320/M-SDE3FGHIRWY/LB1 |
Departure
| Time | 2026-04-14 11:35 |
|---|---|
| Airport | London Gatwick Airport (EGKK) |
Arrival
| Time | 2026-04-14 12:32 |
|---|---|
| Airport | Belfast International Airport (EGAA) |
| Time | Latitude | Longitude | Altitude | Speed | Heading |
|---|---|---|---|---|---|
| 2026-04-14 11:09 | 51.15394 | -0.17940 | 204 ft | 0 kts | 167° |
| 2026-04-14 11:26 | 51.15402 | -0.17943 | 203 ft | 4 kts | 166° |
| 2026-04-14 11:27 | 51.15428 | -0.17955 | 216 ft | 4 kts | 159° |
| 2026-04-14 11:27 | 51.15452 | -0.17973 | 210 ft | 4 kts | 143° |
| 2026-04-14 11:27 | 51.15468 | -0.18001 | 210 ft | 4 kts | 96° |
| 2026-04-14 11:27 | 51.15468 | -0.18019 | 210 ft | 1 kts | 78° |
| 2026-04-14 11:28 | 51.15468 | -0.18020 | 210 ft | 0 kts | 78° |
| 2026-04-14 11:30 | 51.15470 | -0.18003 | 211 ft | 2 kts | 78° |
| 2026-04-14 11:30 | 51.15478 | -0.17944 | 210 ft | 8 kts | 77° |
| 2026-04-14 11:30 | 51.15491 | -0.17855 | 211 ft | 12 kts | 77° |
| 2026-04-14 11:30 | 51.15510 | -0.17722 | 203 ft | 11 kts | 77° |
| 2026-04-14 11:31 | 51.15532 | -0.17561 | 207 ft | 19 kts | 78° |
| 2026-04-14 11:31 | 51.15482 | -0.17414 | 206 ft | 17 kts | 168° |
| 2026-04-14 11:31 | 51.15364 | -0.17375 | 213 ft | 17 kts | 167° |
| 2026-04-14 11:31 | 51.15317 | -0.17236 | 211 ft | 17 kts | 78° |
| 2026-04-14 11:32 | 51.15342 | -0.17054 | 207 ft | 16 kts | 79° |
| 2026-04-14 11:32 | 51.15364 | -0.16892 | 214 ft | 14 kts | 77° |
| 2026-04-14 11:32 | 51.15326 | -0.16805 | 211 ft | 8 kts | 184° |
| 2026-04-14 11:32 | 51.15266 | -0.16819 | 207 ft | 9 kts | 178° |
| 2026-04-14 11:33 | 51.15238 | -0.16809 | 208 ft | 0 kts | 166° |
| 2026-04-14 11:34 | 51.15188 | -0.16790 | 203 ft | 11 kts | 166° |
| 2026-04-14 11:34 | 51.15121 | -0.16827 | 208 ft | 13 kts | 244° |
| 2026-04-14 11:34 | 51.15077 | -0.17123 | 204 ft | 61 kts | 257° |
| 2026-04-14 11:35 | 51.14934 | -0.18166 | 208 ft | 129 kts | 258° |
| 2026-04-14 11:35 | 51.14689 | -0.19788 | 447 ft | 160 kts | 252° |
| 2026-04-14 11:35 | 51.14431 | -0.21538 | 1110 ft | 169 kts | 252° |
| 2026-04-14 11:35 | 51.14219 | -0.23451 | 1664 ft | 183 kts | 251° |
| 2026-04-14 11:36 | 51.13940 | -0.25562 | 1944 ft | 207 kts | 252° |
| 2026-04-14 11:36 | 51.13722 | -0.27921 | 2540 ft | 224 kts | 269° |
| 2026-04-14 11:36 | 51.14233 | -0.30304 | 3372 ft | 237 kts | 302° |
| 2026-04-14 11:36 | 51.15539 | -0.31977 | 3959 ft | 252 kts | 337° |
| 2026-04-14 11:37 | 51.17230 | -0.32124 | 4569 ft | 247 kts | 16° |
| 2026-04-14 11:37 | 51.18689 | -0.30739 | 5345 ft | 246 kts | 52° |
| 2026-04-14 11:37 | 51.19417 | -0.28362 | 6121 ft | 238 kts | 82° |
| 2026-04-14 11:37 | 51.19739 | -0.25710 | 6652 ft | 249 kts | 83° |
| 2026-04-14 11:38 | 51.20289 | -0.23025 | 7154 ft | 264 kts | 59° |
| 2026-04-14 11:38 | 51.21595 | -0.20908 | 7654 ft | 276 kts | 29° |
| 2026-04-14 11:38 | 51.23393 | -0.19663 | 8178 ft | 289 kts | 18° |
| 2026-04-14 11:38 | 51.25325 | -0.18621 | 8733 ft | 296 kts | 16° |
| 2026-04-14 11:39 | 51.27294 | -0.17586 | 9391 ft | 300 kts | 16° |
| 2026-04-14 11:39 | 51.29281 | -0.16556 | 10063 ft | 302 kts | 16° |
| 2026-04-14 11:39 | 51.31286 | -0.15507 | 10670 ft | 306 kts | 16° |
| 2026-04-14 11:39 | 51.33288 | -0.14456 | 11267 ft | 308 kts | 16° |
| 2026-04-14 11:40 | 51.35355 | -0.13557 | 11893 ft | 309 kts | 4° |
| 2026-04-14 11:40 | 51.37594 | -0.13290 | 12114 ft | 330 kts | 0° |
| 2026-04-14 11:40 | 51.39962 | -0.13109 | 12258 ft | 352 kts | 0° |
| 2026-04-14 11:40 | 51.42455 | -0.12949 | 12650 ft | 363 kts | 0° |
| 2026-04-14 11:41 | 51.45002 | -0.12786 | 13241 ft | 369 kts | 360° |
| 2026-04-14 11:41 | 51.47579 | -0.12617 | 13902 ft | 372 kts | 0° |
| 2026-04-14 11:41 | 51.50174 | -0.12442 | 14492 ft | 375 kts | 359° |
| 2026-04-14 11:41 | 51.52759 | -0.12262 | 15080 ft | 377 kts | 359° |
| 2026-04-14 11:42 | 51.55387 | -0.12077 | 15704 ft | 378 kts | 360° |
| 2026-04-14 11:42 | 51.58053 | -0.11886 | 16363 ft | 380 kts | 359° |
| 2026-04-14 11:42 | 51.60662 | -0.11698 | 16982 ft | 380 kts | 359° |
| 2026-04-14 11:42 | 51.63306 | -0.11628 | 17581 ft | 379 kts | 352° |
| 2026-04-14 11:43 | 51.65887 | -0.12581 | 17812 ft | 386 kts | 334° |
| 2026-04-14 11:43 | 51.68245 | -0.14730 | 17954 ft | 395 kts | 325° |
| 2026-04-14 11:43 | 51.70600 | -0.17149 | 18090 ft | 407 kts | 326° |
| 2026-04-14 11:43 | 51.73017 | -0.19641 | 18228 ft | 418 kts | 326° |
| 2026-04-14 11:44 | 51.75494 | -0.22190 | 18417 ft | 426 kts | 326° |
| 2026-04-14 11:44 | 51.78001 | -0.24763 | 18727 ft | 429 kts | 326° |
| 2026-04-14 11:44 | 51.80527 | -0.27350 | 19089 ft | 431 kts | 326° |
| 2026-04-14 11:44 | 51.83064 | -0.29939 | 19481 ft | 432 kts | 326° |
| 2026-04-14 11:45 | 51.85606 | -0.32535 | 19864 ft | 432 kts | 326° |
| 2026-04-14 11:45 | 51.88151 | -0.35144 | 20233 ft | 433 kts | 325° |
| 2026-04-14 11:45 | 51.90701 | -0.37770 | 20597 ft | 435 kts | 325° |
| 2026-04-14 11:45 | 51.93253 | -0.40407 | 20938 ft | 436 kts | 325° |
| 2026-04-14 11:46 | 51.95810 | -0.43053 | 21292 ft | 437 kts | 325° |
| 2026-04-14 11:46 | 51.98340 | -0.45675 | 21618 ft | 438 kts | 325° |
| 2026-04-14 11:46 | 52.00907 | -0.48346 | 21945 ft | 439 kts | 325° |
| 2026-04-14 11:46 | 52.03481 | -0.51028 | 22252 ft | 440 kts | 325° |
| 2026-04-14 11:47 | 52.06062 | -0.53717 | 22576 ft | 441 kts | 325° |
| 2026-04-14 11:47 | 52.08643 | -0.56403 | 22914 ft | 441 kts | 325° |
| 2026-04-14 11:47 | 52.11238 | -0.59097 | 23219 ft | 442 kts | 325° |
| 2026-04-14 11:47 | 52.13834 | -0.61791 | 23518 ft | 443 kts | 325° |
| 2026-04-14 11:48 | 52.16434 | -0.64497 | 23788 ft | 444 kts | 324° |
| 2026-04-14 11:48 | 52.19039 | -0.67221 | 24025 ft | 445 kts | 324° |
| 2026-04-14 11:48 | 52.21645 | -0.69954 | 24254 ft | 446 kts | 324° |
| 2026-04-14 11:48 | 52.24256 | -0.72693 | 24487 ft | 446 kts | 324° |
| 2026-04-14 11:49 | 52.26870 | -0.75437 | 24708 ft | 447 kts | 324° |
| 2026-04-14 11:49 | 52.29485 | -0.78188 | 24972 ft | 448 kts | 324° |
| 2026-04-14 11:49 | 52.32104 | -0.80949 | 25221 ft | 448 kts | 324° |
| 2026-04-14 11:49 | 52.34722 | -0.83713 | 25465 ft | 449 kts | 324° |
| 2026-04-14 11:50 | 52.37345 | -0.86485 | 25687 ft | 449 kts | 324° |
| 2026-04-14 11:50 | 52.39966 | -0.89251 | 26026 ft | 447 kts | 324° |
| 2026-04-14 11:50 | 52.42574 | -0.92007 | 26395 ft | 445 kts | 324° |
| 2026-04-14 11:51 | 52.47739 | -0.97497 | 27097 ft | 440 kts | 324° |
| 2026-04-14 11:51 | 52.50304 | -1.00228 | 27456 ft | 438 kts | 324° |
| 2026-04-14 11:51 | 52.52855 | -1.02944 | 27828 ft | 436 kts | 324° |
| 2026-04-14 11:51 | 52.55392 | -1.05654 | 28196 ft | 434 kts | 324° |
| 2026-04-14 11:52 | 52.57914 | -1.08353 | 28565 ft | 432 kts | 324° |
| 2026-04-14 11:52 | 52.60426 | -1.11046 | 28944 ft | 430 kts | 324° |
| 2026-04-14 11:52 | 52.62924 | -1.13719 | 29338 ft | 427 kts | 324° |
| 2026-04-14 11:52 | 52.65410 | -1.16379 | 29713 ft | 425 kts | 324° |
| 2026-04-14 11:53 | 52.67886 | -1.19034 | 29939 ft | 424 kts | 324° |
| 2026-04-14 11:53 | 52.70314 | -1.21646 | 29965 ft | 422 kts | 324° |
| 2026-04-14 11:53 | 52.75230 | -1.26954 | 30088 ft | 422 kts | 323° |
| 2026-04-14 11:54 | 52.77452 | -1.30047 | 30091 ft | 417 kts | 310° |
| 2026-04-14 11:54 | 52.79223 | -1.33831 | 30083 ft | 417 kts | 306° |
| 2026-04-14 11:54 | 52.82657 | -1.41562 | 30084 ft | 417 kts | 305° |
| 2026-04-14 11:55 | 52.86066 | -1.49329 | 30082 ft | 417 kts | 305° |
| 2026-04-14 11:55 | 52.89478 | -1.57111 | 30067 ft | 417 kts | 305° |
| 2026-04-14 11:56 | 52.92890 | -1.64886 | 30064 ft | 417 kts | 305° |
| 2026-04-14 11:56 | 52.96291 | -1.72678 | 30049 ft | 417 kts | 305° |
| 2026-04-14 11:57 | 52.99690 | -1.80480 | 30079 ft | 417 kts | 305° |
| 2026-04-14 11:57 | 53.03084 | -1.88291 | 30061 ft | 417 kts | 305° |
| 2026-04-14 11:58 | 53.06471 | -1.96128 | 30056 ft | 417 kts | 304° |
| 2026-04-14 11:58 | 53.09853 | -2.03969 | 30042 ft | 417 kts | 304° |
| 2026-04-14 11:59 | 53.12659 | -2.10492 | 30045 ft | 417 kts | 304° |
| 2026-04-14 11:59 | 53.16031 | -2.18348 | 30052 ft | 417 kts | 304° |
| 2026-04-14 12:00 | 53.19406 | -2.26210 | 30050 ft | 417 kts | 304° |
| 2026-04-14 12:00 | 53.22765 | -2.34094 | 30057 ft | 417 kts | 304° |
| 2026-04-14 12:01 | 53.26118 | -2.41982 | 30055 ft | 417 kts | 304° |
| 2026-04-14 12:01 | 53.29467 | -2.49886 | 30044 ft | 416 kts | 304° |
| 2026-04-14 12:02 | 53.32800 | -2.57788 | 30032 ft | 416 kts | 303° |
| 2026-04-14 12:02 | 53.36136 | -2.65705 | 30020 ft | 417 kts | 303° |
| 2026-04-14 12:03 | 53.39469 | -2.73637 | 29994 ft | 416 kts | 303° |
| 2026-04-14 12:03 | 53.42771 | -2.81533 | 30014 ft | 417 kts | 303° |
| 2026-04-14 12:04 | 53.46108 | -2.89555 | 29980 ft | 417 kts | 303° |
| 2026-04-14 12:04 | 53.49406 | -2.97477 | 29984 ft | 417 kts | 303° |
| 2026-04-14 12:05 | 53.52727 | -3.05469 | 29991 ft | 417 kts | 303° |
| 2026-04-14 12:05 | 53.56034 | -3.13480 | 29978 ft | 417 kts | 303° |
| 2026-04-14 12:06 | 53.59337 | -3.21503 | 29980 ft | 417 kts | 303° |
| 2026-04-14 12:06 | 53.62641 | -3.29552 | 29976 ft | 418 kts | 302° |
| 2026-04-14 12:07 | 53.65935 | -3.37625 | 29972 ft | 418 kts | 302° |
| 2026-04-14 12:07 | 53.69235 | -3.45701 | 29984 ft | 418 kts | 302° |
| 2026-04-14 12:08 | 53.72525 | -3.53793 | 29984 ft | 418 kts | 302° |
| 2026-04-14 12:08 | 53.75558 | -3.62144 | 29963 ft | 416 kts | 294° |
| 2026-04-14 12:09 | 53.76805 | -3.66567 | 29622 ft | 418 kts | 294° |
| 2026-04-14 12:09 | 53.78053 | -3.71006 | 29057 ft | 419 kts | 294° |
| 2026-04-14 12:09 | 53.79300 | -3.75469 | 28519 ft | 421 kts | 294° |
| 2026-04-14 12:09 | 53.80554 | -3.79965 | 27974 ft | 424 kts | 294° |
| 2026-04-14 12:10 | 53.81815 | -3.84501 | 27447 ft | 427 kts | 294° |
| 2026-04-14 12:10 | 53.83081 | -3.89071 | 26919 ft | 431 kts | 293° |
| 2026-04-14 12:10 | 53.84357 | -3.93679 | 26433 ft | 434 kts | 293° |
| 2026-04-14 12:10 | 53.85643 | -3.98324 | 25911 ft | 437 kts | 293° |
| 2026-04-14 12:11 | 53.86934 | -4.02997 | 25425 ft | 439 kts | 293° |
| 2026-04-14 12:11 | 53.88228 | -4.07683 | 24949 ft | 438 kts | 293° |
| 2026-04-14 12:11 | 53.89520 | -4.12361 | 24476 ft | 437 kts | 293° |
| 2026-04-14 12:11 | 53.90808 | -4.17027 | 24009 ft | 436 kts | 293° |
| 2026-04-14 12:12 | 53.92089 | -4.21685 | 23526 ft | 435 kts | 292° |
| 2026-04-14 12:12 | 53.93364 | -4.26348 | 23029 ft | 436 kts | 292° |
| 2026-04-14 12:12 | 53.94633 | -4.31010 | 22479 ft | 435 kts | 292° |
| 2026-04-14 12:12 | 53.95897 | -4.35670 | 21951 ft | 433 kts | 292° |
| 2026-04-14 12:13 | 53.97152 | -4.40309 | 21421 ft | 432 kts | 292° |
| 2026-04-14 12:13 | 53.98403 | -4.44942 | 20921 ft | 431 kts | 292° |
| 2026-04-14 12:13 | 53.99649 | -4.49557 | 20420 ft | 429 kts | 292° |
| 2026-04-14 12:13 | 54.00894 | -4.54156 | 19927 ft | 428 kts | 292° |
| 2026-04-14 12:14 | 54.02135 | -4.58745 | 19442 ft | 426 kts | 292° |
| 2026-04-14 12:14 | 54.03369 | -4.63309 | 18963 ft | 424 kts | 292° |
| 2026-04-14 12:14 | 54.04595 | -4.67859 | 18494 ft | 423 kts | 292° |
| 2026-04-14 12:14 | 54.05816 | -4.72417 | 17964 ft | 423 kts | 292° |
| 2026-04-14 12:15 | 54.07029 | -4.76960 | 17445 ft | 420 kts | 291° |
| 2026-04-14 12:15 | 54.08227 | -4.81459 | 16916 ft | 415 kts | 291° |
| 2026-04-14 12:15 | 54.09397 | -4.85863 | 16401 ft | 413 kts | 291° |
| 2026-04-14 12:15 | 54.10578 | -4.90309 | 15893 ft | 410 kts | 291° |
| 2026-04-14 12:16 | 54.11748 | -4.94720 | 15391 ft | 407 kts | 291° |
| 2026-04-14 12:16 | 54.12909 | -4.99106 | 14898 ft | 405 kts | 291° |
| 2026-04-14 12:16 | 54.14065 | -5.03481 | 14411 ft | 404 kts | 291° |
| 2026-04-14 12:16 | 54.15215 | -5.07846 | 13940 ft | 402 kts | 290° |
| 2026-04-14 12:17 | 54.16358 | -5.12188 | 13427 ft | 401 kts | 290° |
| 2026-04-14 12:17 | 54.17493 | -5.16508 | 12888 ft | 398 kts | 290° |
| 2026-04-14 12:17 | 54.18619 | -5.20803 | 12378 ft | 395 kts | 290° |
| 2026-04-14 12:17 | 54.19737 | -5.25079 | 11855 ft | 393 kts | 290° |
| 2026-04-14 12:18 | 54.20850 | -5.29338 | 11350 ft | 392 kts | 290° |
| 2026-04-14 12:18 | 54.21956 | -5.33572 | 10851 ft | 387 kts | 291° |
| 2026-04-14 12:18 | 54.23041 | -5.37735 | 10362 ft | 380 kts | 290° |
| 2026-04-14 12:18 | 54.24104 | -5.41824 | 9885 ft | 373 kts | 290° |
| 2026-04-14 12:19 | 54.25149 | -5.45845 | 9354 ft | 367 kts | 290° |
| 2026-04-14 12:19 | 54.26177 | -5.49801 | 8830 ft | 361 kts | 290° |
| 2026-04-14 12:19 | 54.27187 | -5.53692 | 8313 ft | 355 kts | 290° |
| 2026-04-14 12:19 | 54.28176 | -5.57524 | 7806 ft | 350 kts | 290° |
| 2026-04-14 12:20 | 54.29149 | -5.61314 | 7303 ft | 346 kts | 289° |
| 2026-04-14 12:20 | 54.30113 | -5.65065 | 6959 ft | 342 kts | 289° |
| 2026-04-14 12:20 | 54.31067 | -5.68788 | 6904 ft | 341 kts | 289° |
| 2026-04-14 12:20 | 54.32018 | -5.72515 | 6912 ft | 341 kts | 289° |
| 2026-04-14 12:21 | 54.32971 | -5.76249 | 6904 ft | 343 kts | 289° |
| 2026-04-14 12:21 | 54.33927 | -5.79996 | 6904 ft | 343 kts | 289° |
| 2026-04-14 12:21 | 54.34883 | -5.83741 | 6903 ft | 343 kts | 289° |
| 2026-04-14 12:21 | 54.35838 | -5.87492 | 6912 ft | 344 kts | 289° |
| 2026-04-14 12:22 | 54.36792 | -5.91250 | 6906 ft | 343 kts | 289° |
| 2026-04-14 12:22 | 54.37718 | -5.94894 | 6867 ft | 324 kts | 289° |
| 2026-04-14 12:22 | 54.38603 | -5.98370 | 6663 ft | 312 kts | 289° |
| 2026-04-14 12:22 | 54.39453 | -6.01724 | 6468 ft | 302 kts | 289° |
| 2026-04-14 12:23 | 54.40284 | -6.05015 | 6263 ft | 299 kts | 288° |
| 2026-04-14 12:23 | 54.41105 | -6.08284 | 6066 ft | 298 kts | 288° |
| 2026-04-14 12:23 | 54.41921 | -6.11540 | 5844 ft | 297 kts | 288° |
| 2026-04-14 12:23 | 54.42741 | -6.14807 | 5634 ft | 296 kts | 288° |
| 2026-04-14 12:24 | 54.43555 | -6.18055 | 5426 ft | 295 kts | 288° |
| 2026-04-14 12:24 | 54.44365 | -6.21292 | 5213 ft | 295 kts | 288° |
| 2026-04-14 12:24 | 54.45177 | -6.24532 | 5006 ft | 295 kts | 288° |
| 2026-04-14 12:24 | 54.45985 | -6.27763 | 4802 ft | 294 kts | 288° |
| 2026-04-14 12:25 | 54.46794 | -6.30991 | 4670 ft | 294 kts | 288° |
| 2026-04-14 12:25 | 54.47601 | -6.34212 | 4535 ft | 289 kts | 288° |
| 2026-04-14 12:25 | 54.48379 | -6.37308 | 4403 ft | 276 kts | 288° |
| 2026-04-14 12:25 | 54.49129 | -6.40313 | 4272 ft | 273 kts | 288° |
| 2026-04-14 12:26 | 54.49872 | -6.43316 | 4142 ft | 273 kts | 287° |
| 2026-04-14 12:26 | 54.50595 | -6.46254 | 4037 ft | 261 kts | 288° |
| 2026-04-14 12:26 | 54.51277 | -6.49011 | 3993 ft | 245 kts | 287° |
| 2026-04-14 12:26 | 54.51935 | -6.51669 | 4000 ft | 240 kts | 287° |
| 2026-04-14 12:27 | 54.52732 | -6.54133 | 3996 ft | 237 kts | 309° |
| 2026-04-14 12:27 | 54.54155 | -6.55571 | 4002 ft | 245 kts | 347° |
| 2026-04-14 12:27 | 54.55832 | -6.55316 | 4003 ft | 245 kts | 27° |
| 2026-04-14 12:27 | 54.57080 | -6.53489 | 4003 ft | 232 kts | 64° |
| 2026-04-14 12:28 | 54.57768 | -6.51088 | 3951 ft | 219 kts | 71° |
| 2026-04-14 12:28 | 54.58416 | -6.48685 | 3592 ft | 220 kts | 72° |
| 2026-04-14 12:28 | 54.59056 | -6.46312 | 3224 ft | 216 kts | 72° |
| 2026-04-14 12:28 | 54.59689 | -6.43976 | 2798 ft | 213 kts | 73° |
| 2026-04-14 12:29 | 54.60306 | -6.41717 | 2479 ft | 204 kts | 74° |
| 2026-04-14 12:29 | 54.60896 | -6.39577 | 2218 ft | 190 kts | 76° |
| 2026-04-14 12:29 | 54.61446 | -6.37589 | 1967 ft | 177 kts | 76° |
| 2026-04-14 12:29 | 54.61957 | -6.35719 | 1741 ft | 167 kts | 76° |
| 2026-04-14 12:30 | 54.62430 | -6.33992 | 1525 ft | 153 kts | 77° |
| 2026-04-14 12:30 | 54.62865 | -6.32386 | 1315 ft | 143 kts | 76° |
| 2026-04-14 12:30 | 54.63274 | -6.30859 | 1131 ft | 137 kts | 76° |
| 2026-04-14 12:30 | 54.63664 | -6.29385 | 952 ft | 134 kts | 79° |
| 2026-04-14 12:31 | 54.64039 | -6.27944 | 785 ft | 130 kts | 76° |
| 2026-04-14 12:31 | 54.64418 | -6.26514 | 648 ft | 131 kts | 73° |
| 2026-04-14 12:31 | 54.64810 | -6.25079 | 476 ft | 131 kts | 71° |
| 2026-04-14 12:31 | 54.65193 | -6.23657 | 318 ft | 130 kts | 71° |
| 2026-04-14 12:32 | 54.65546 | -6.22313 | 275 ft | 109 kts | 62° |
| 2026-04-14 12:32 | 54.65806 | -6.21365 | 272 ft | 66 kts | 65° |
| 2026-04-14 12:32 | 54.65982 | -6.20712 | 272 ft | 55 kts | 65° |
| 2026-04-14 12:32 | 54.66130 | -6.20168 | 275 ft | 46 kts | 65° |
| 2026-04-14 12:33 | 54.66245 | -6.19741 | 272 ft | 25 kts | 65° |
| 2026-04-14 12:33 | 54.66339 | -6.19691 | 274 ft | 16 kts | 333° |
| 2026-04-14 12:33 | 54.66394 | -6.19846 | 272 ft | 16 kts | 266° |
| 2026-04-14 12:33 | 54.66354 | -6.20019 | 275 ft | 15 kts | 245° |
| 2026-04-14 12:34 | 54.66309 | -6.20185 | 272 ft | 19 kts | 245° |
| 2026-04-14 12:34 | 54.66252 | -6.20395 | 276 ft | 18 kts | 245° |
| 2026-04-14 12:34 | 54.66202 | -6.20584 | 273 ft | 16 kts | 245° |
| 2026-04-14 12:34 | 54.66156 | -6.20754 | 272 ft | 15 kts | 244° |
| 2026-04-14 12:35 | 54.66115 | -6.20906 | 272 ft | 13 kts | 245° |
| 2026-04-14 12:35 | 54.66080 | -6.21043 | 276 ft | 12 kts | 246° |
| 2026-04-14 12:35 | 54.66049 | -6.21164 | 275 ft | 10 kts | 249° |
| 2026-04-14 12:35 | 54.66086 | -6.21229 | 272 ft | 8 kts | 333° |
| 2026-04-14 12:36 | 54.66136 | -6.21267 | 272 ft | 7 kts | 336° |
| 2026-04-14 12:36 | 54.66157 | -6.21325 | 272 ft | 5 kts | 265° |
| 2026-04-14 12:36 | 54.66147 | -6.21376 | 272 ft | 4 kts | 246° |
| 2026-04-14 12:36 | 54.66145 | -6.21383 | 272 ft | 0 kts | 246° |